Ocean Spirit of Moray — MVXF5 — position and weather

sailwx.info

Track history (hours):
 
Tides and Currents Weather Stations Pressure Air Temp Water Temp Dewpoint Dewpoint Depression Visibility Wind Speed Wind Dir Waves Ship Positions

Ocean Spirit of Moray (United Kingdom)

Ship's website: http://www.gordonstoun.org.uk/

Last reported at 2018-Sep-29 14:35 UTC. Time now 2018-Dec-12 05:12 UTC.
Position N 57°21' W 005°38'.
Warning: this ship's position is months out of date.

Length 24 m; draft 3 m.

Type: Sailing vessel. MMSI: 232007590.

Date/timePositionNaut miles runAvg speedWind from/ knotsBaromVisibWave heightAir tempDewpointWater temp
2018-Sep-29 14:35N 57°21' W 005°38'3 7.7
2018-Sep-29 14:15N 57°21' W 005°43'3 6.5
2018-Sep-29 13:48N 57°18' W 005°46'  
2018-Sep-25 11:11N 57°17' W 005°46'  
2018-Sep-22 10:11N 57°19' W 005°53'1 7.0
2018-Sep-22 10:03N 57°18' W 005°52'0 6.6
2018-Sep-22 10:00N 57°18' W 005°52'2 0.1
2018-Sep-21 09:35N 57°20' W 005°52'1 6.5
2018-Sep-21 09:30N 57°19' W 005°51'2 4.5
2018-Sep-21 09:03N 57°18' W 005°49'0 7.9
2018-Sep-21 09:00N 57°17' W 005°49'  
Track history (hours):
 
Tides and Currents Weather Stations Pressure Air Temp Water Temp Dewpoint Dewpoint Depression Visibility Wind Speed Wind Dir Waves Ship Positions

Ocean Spirit of Moray (United Kingdom)

Ship's website: http://www.gordonstoun.org.uk/

Last reported at 2018-Sep-29 14:35 UTC. Time now 2018-Dec-12 05:12 UTC.
Position N 57°21' W 005°38'.
Warning: this ship's position is months out of date.

Length 24 m; draft 3 m.

Type: Sailing vessel. MMSI: 232007590.

Date/timePositionNaut miles runAvg speedWind from/ knotsBaromVisibWave heightAir tempDewpointWater temp
2018-Sep-29 14:35N 57°21' W 005°38'3 7.7
2018-Sep-29 14:15N 57°21' W 005°43'3 6.5
2018-Sep-29 13:48N 57°18' W 005°46'  
2018-Sep-25 11:11N 57°17' W 005°46'  
2018-Sep-22 10:11N 57°19' W 005°53'1 7.0
2018-Sep-22 10:03N 57°18' W 005°52'0 6.6
2018-Sep-22 10:00N 57°18' W 005°52'2 0.1
2018-Sep-21 09:35N 57°20' W 005°52'1 6.5
2018-Sep-21 09:30N 57°19' W 005°51'2 4.5
2018-Sep-21 09:03N 57°18' W 005°49'0 7.9
2018-Sep-21 09:00N 57°17' W 005°49'  

Dump ship's entire track history